Time;durP1;ratioP1;P1;durP2;ratioP2;P2;SDS_P1;SDS_P2;PMS_P1;PMS_P2;Temp;Humidity;BMP_temperature;BMP_pressure;BME280_temperature;BME280_humidity;BME280_pressure;Samples;Min_cycle;Max_cycle;Signal;HPM_P1;HPM_P2
2023/09/18 00:02:11;;;;;;;12.20;7.80;;;;;;;16.60;100.00;100479.53;5045146;28;20428;-87
2023/09/18 00:04:39;;;;;;;13.68;7.60;;;;;;;16.57;100.00;100478.25;5022747;28;20426;-88
2023/09/18 00:07:13;;;;;;;11.75;7.95;;;;;;;16.53;100.00;100468.22;5046197;28;20439;-87
2023/09/18 00:09:41;;;;;;;10.98;7.68;;;;;;;16.54;100.00;100478.09;5029329;28;20427;-87
2023/09/18 00:12:15;;;;;;;13.65;8.20;;;;;;;16.49;100.00;100463.41;5030042;28;20423;-87
2023/09/18 00:14:49;;;;;;;12.80;7.72;;;;;;;16.59;100.00;100462.25;5031198;28;20899;-88
2023/09/18 00:17:23;;;;;;;11.47;8.00;;;;;;;16.53;100.00;100454.50;5041745;28;20910;-87
2023/09/18 00:19:56;;;;;;;14.18;7.72;;;;;;;16.53;100.00;100449.00;5041091;28;20434;-88
2023/09/18 00:22:25;;;;;;;11.93;7.80;;;;;;;16.51;100.00;100448.53;5029282;28;20430;-88
2023/09/18 00:24:58;;;;;;;10.93;7.65;;;;;;;16.48;100.00;100455.50;5029916;28;20415;-87
2023/09/18 00:27:33;;;;;;;11.40;7.83;;;;;;;16.45;100.00;100445.16;5030181;28;20437;-87
2023/09/18 00:30:07;;;;;;;11.48;7.80;;;;;;;16.39;100.00;100441.78;5030226;28;20426;-87
2023/09/18 00:32:35;;;;;;;11.73;7.50;;;;;;;16.33;100.00;100438.38;5029826;28;20437;-87
2023/09/18 00:35:04;;;;;;;12.77;8.05;;;;;;;16.29;100.00;100433.84;5046929;28;20426;-87
2023/09/18 00:37:32;;;;;;;9.70;7.70;;;;;;;16.27;100.00;100425.94;5028962;28;20783;-87
2023/09/18 00:40:01;;;;;;;12.77;7.40;;;;;;;16.26;100.00;100429.03;5046612;28;20415;-87
2023/09/18 00:42:36;;;;;;;12.75;7.90;;;;;;;16.23;100.00;100424.19;5046385;28;20423;-87
2023/09/18 00:45:05;;;;;;;11.85;8.02;;;;;;;16.23;100.00;100424.19;5025815;28;20442;-87
2023/09/18 00:47:38;;;;;;;13.70;7.60;;;;;;;16.20;100.00;100424.81;5040159;28;20437;-87
2023/09/18 00:50:10;;;;;;;13.10;8.07;;;;;;;16.20;100.00;100424.81;5029418;28;20418;-87
2023/09/18 00:52:39;;;;;;;11.95;7.93;;;;;;;16.15;100.00;100417.56;5030925;28;20444;-87
2023/09/18 00:55:09;;;;;;;12.88;7.93;;;;;;;16.10;100.00;100409.47;5040928;28;20447;-87
2023/09/18 00:57:38;;;;;;;11.48;7.95;;;;;;;16.07;100.00;100419.16;5034715;28;20419;-87
2023/09/18 01:00:15;;;;;;;11.75;7.85;;;;;;;16.06;100.00;100406.59;5028424;28;20915;-87
2023/09/18 01:02:48;;;;;;;12.65;7.65;;;;;;;16.02;100.00;100402.88;5028451;28;20426;-87
2023/09/18 01:05:21;;;;;;;10.37;7.73;;;;;;;16.01;100.00;100401.25;5030271;28;20418;-87
2023/09/18 01:07:51;;;;;;;13.13;8.15;;;;;;;16.01;100.00;100404.00;5030332;28;20407;-87
2023/09/18 01:10:22;;;;;;;11.77;8.18;;;;;;;15.98;100.00;100399.97;5042801;28;20419;-87
2023/09/18 01:13:13;;;;;;;11.52;7.82;;;;;;;15.93;100.00;100393.84;5029663;28;20911;-87
2023/09/18 01:15:53;;;;;;;12.98;8.07;;;;;;;15.91;100.00;100391.41;5027344;28;20918;-88
2023/09/18 01:18:26;;;;;;;13.40;7.93;;;;;;;15.93;100.00;100394.63;5027848;28;20415;-87
2023/09/18 01:20:59;;;;;;;11.02;7.85;;;;;;;15.92;100.00;100393.03;5030851;28;20779;-87
2023/09/18 01:23:28;;;;;;;11.40;8.07;;;;;;;15.87;100.00;100390.44;5037499;28;20427;-87
2023/09/18 01:26:02;;;;;;;11.30;7.97;;;;;;;15.83;100.00;100386.72;5029393;28;20427;-87
2023/09/18 01:28:30;;;;;;;12.75;8.00;;;;;;;15.84;100.00;100385.59;5030508;28;20411;-87
2023/09/18 01:30:58;;;;;;;12.13;8.23;;;;;;;15.84;100.00;100373.81;5028575;28;20439;-87
2023/09/18 01:33:29;;;;;;;11.32;8.35;;;;;;;15.83;100.00;100378.50;5028786;28;20453;-88
2023/09/18 01:36:04;;;;;;;13.15;8.27;;;;;;;15.83;100.00;100362.03;5028854;28;20760;-87
2023/09/18 01:38:39;;;;;;;11.10;8.02;;;;;;;15.84;100.00;100355.44;5045106;28;20411;-88
2023/09/18 01:41:13;;;;;;;14.70;8.07;;;;;;;15.81;100.00;100351.38;5027240;28;20411;-87
2023/09/18 01:43:47;;;;;;;11.68;8.05;;;;;;;15.79;100.00;100345.41;5030455;28;20411;-88
2023/09/18 01:46:20;;;;;;;10.80;8.15;;;;;;;15.78;100.00;100342.97;5028549;28;20427;-87
2023/09/18 01:48:48;;;;;;;11.88;8.50;;;;;;;15.74;100.00;100340.06;5021945;28;20419;-87
2023/09/18 01:51:21;;;;;;;11.98;8.45;;;;;;;15.72;100.00;100338.78;5028684;28;20427;-88
2023/09/18 01:53:51;;;;;;;13.07;8.93;;;;;;;15.72;100.00;100328.59;5025744;28;20423;-88
2023/09/18 01:56:19;;;;;;;11.82;8.60;;;;;;;15.68;100.00;100327.63;5028819;28;21065;-87
2023/09/18 01:58:47;;;;;;;11.65;8.45;;;;;;;15.69;100.00;100326.50;5031905;28;20414;-87
2023/09/18 02:01:15;;;;;;;11.97;9.00;;;;;;;15.67;100.00;100320.53;5032166;28;20414;-87
2023/09/18 02:03:45;;;;;;;11.98;8.60;;;;;;;15.64;100.00;100326.66;5033588;28;20403;-87
2023/09/18 02:06:13;;;;;;;12.93;8.87;;;;;;;15.61;100.00;100322.63;5030221;28;20421;-87
2023/09/18 02:08:42;;;;;;;11.95;8.30;;;;;;;15.61;100.00;100325.38;5024513;28;20423;-86
2023/09/18 02:11:16;;;;;;;11.18;8.73;;;;;;;15.62;100.00;100316.00;5032393;28;20438;-87
2023/09/18 02:13:44;;;;;;;11.47;8.73;;;;;;;15.62;100.00;100313.28;5031890;28;20426;-86
2023/09/18 02:16:22;;;;;;;12.10;8.20;;;;;;;15.57;100.00;100301.66;5032321;28;20426;-87
2023/09/18 02:18:50;;;;;;;13.73;8.55;;;;;;;15.54;100.00;100307.78;5033809;28;20403;-87
2023/09/18 02:21:20;;;;;;;12.27;8.30;;;;;;;15.59;100.00;100305.69;5048483;28;20430;-87
2023/09/18 02:23:54;;;;;;;13.52;8.95;;;;;;;15.61;100.00;100289.72;5032592;28;20418;-87
2023/09/18 02:26:29;;;;;;;13.43;8.30;;;;;;;15.54;100.00;100285.84;5039756;28;20433;-87
2023/09/18 02:29:00;;;;;;;13.40;8.93;;;;;;;15.48;100.00;100287.97;5030611;28;20423;-87
2023/09/18 02:31:28;;;;;;;11.52;8.73;;;;;;;15.50;100.00;100282.16;5042051;28;20875;-87
2023/09/18 02:34:01;;;;;;;14.23;8.77;;;;;;;15.47;100.00;100269.88;5033318;28;20414;-87
2023/09/18 02:36:34;;;;;;;13.15;9.10;;;;;;;15.46;100.00;100269.06;5031258;28;20933;-87
2023/09/18 02:39:08;;;;;;;12.55;9.10;;;;;;;15.49;100.00;100278.56;5048619;28;20430;-87
2023/09/18 02:41:37;;;;;;;13.50;9.00;;;;;;;15.50;100.00;100282.16;5045667;28;20494;-87
2023/09/18 02:44:10;;;;;;;12.50;9.05;;;;;;;15.45;100.00;100266.63;5033147;28;20437;-87
2023/09/18 02:46:39;;;;;;;11.43;8.65;;;;;;;15.43;100.00;100269.72;5031404;28;20438;-87
2023/09/18 02:49:13;;;;;;;11.80;8.87;;;;;;;15.40;100.00;100264.88;5032157;28;20410;-87
2023/09/18 02:51:46;;;;;;;13.77;8.85;;;;;;;15.41;100.00;100271.16;5030815;28;20445;-87
2023/09/18 02:54:15;;;;;;;12.27;8.85;;;;;;;15.38;100.00;100263.59;5038451;28;20430;-87
2023/09/18 02:56:45;;;;;;;14.77;9.20;;;;;;;15.33;100.00;100255.50;5048209;28;20426;-87
2023/09/18 02:59:18;;;;;;;12.57;8.88;;;;;;;15.35;100.00;100248.59;5044094;28;20431;-87
2023/09/18 03:01:46;;;;;;;12.98;9.10;;;;;;;15.34;100.00;100246.16;5032472;28;20895;-86
2023/09/18 03:04:20;;;;;;;13.20;9.03;;;;;;;15.33;100.00;100241.81;5031070;28;20404;-87
2023/09/18 03:06:54;;;;;;;13.10;9.25;;;;;;;15.34;100.00;100246.16;5031800;28;20422;-87
2023/09/18 03:09:27;;;;;;;13.25;9.50;;;;;;;15.32;100.00;100243.75;5030783;28;20430;-88
2023/09/18 03:12:02;;;;;;;13.98;9.23;;;;;;;15.29;100.00;100236.97;5028293;28;20434;-87
2023/09/18 03:14:35;;;;;;;13.85;9.25;;;;;;;15.25;100.00;100241.47;5030510;28;20434;-87
2023/09/18 03:17:03;;;;;;;13.02;8.80;;;;;;;15.22;100.00;100244.06;5031316;28;20434;-87
2023/09/18 03:19:32;;;;;;;16.33;9.05;;;;;;;15.20;100.00;100241.63;5043573;28;20419;-86
2023/09/18 03:22:00;;;;;;;13.40;9.17;;;;;;;15.19;100.00;100240.03;5047938;28;20423;-87
2023/09/18 03:24:33;;;;;;;12.90;9.10;;;;;;;15.19;100.00;100237.31;5048031;28;20549;-87
2023/09/18 03:27:08;;;;;;;12.18;9.32;;;;;;;15.22;100.00;100244.06;5047257;28;20427;-87
2023/09/18 03:29:36;;;;;;;13.20;9.45;;;;;;;15.23;100.00;100234.72;5030987;28;20450;-87
2023/09/18 03:32:12;;;;;;;16.42;9.90;;;;;;;15.22;100.00;100220.22;5031261;28;20796;-87
2023/09/18 03:34:45;;;;;;;12.10;9.00;;;;;;;15.24;100.00;100228.91;5041996;28;20426;-88
2023/09/18 03:37:18;;;;;;;14.65;9.50;;;;;;;15.21;100.00;100215.84;5038770;28;20415;-87
2023/09/18 03:39:51;;;;;;;13.40;9.50;;;;;;;15.21;100.00;100226.00;5044491;28;20760;-88
2023/09/18 03:42:21;;;;;;;12.73;8.93;;;;;;;15.25;100.00;100210.53;5038406;28;20446;-89
2023/09/18 03:44:49;;;;;;;14.23;8.85;;;;;;;15.24;100.00;100200.69;5029236;28;20412;-87
2023/09/18 03:47:22;;;;;;;12.00;9.10;;;;;;;15.22;100.00;100198.28;5042804;28;20795;-86
2023/09/18 03:49:56;;;;;;;12.02;8.90;;;;;;;15.19;100.00;100184.41;5046316;28;20423;-87
2023/09/18 03:52:30;;;;;;;14.60;9.53;;;;;;;15.18;100.00;100182.78;5047372;28;20775;-87
2023/09/18 03:55:03;;;;;;;12.13;8.93;;;;;;;15.16;100.00;100187.78;5026809;28;20425;-87
2023/09/18 03:57:33;;;;;;;13.15;9.07;;;;;;;15.12;100.00;100182.13;5029460;28;20442;-88
2023/09/18 04:00:08;;;;;;;15.63;9.63;;;;;;;15.06;100.00;100173.28;5028009;28;20418;-87
2023/09/18 04:02:41;;;;;;;14.40;9.67;;;;;;;15.07;100.00;100179.59;5029350;28;20451;-87
2023/09/18 04:05:15;;;;;;;12.82;9.00;;;;;;;14.99;100.00;100174.91;5031732;28;20435;-87
2023/09/18 04:07:48;;;;;;;15.07;9.43;;;;;;;15.07;100.00;100169.41;5032956;28;20416;-87
2023/09/18 04:10:20;;;;;;;14.68;9.45;;;;;;;15.05;100.00;100168.13;5047098;28;20419;-87
2023/09/18 04:12:54;;;;;;;12.57;9.07;;;;;;;15.01;100.00;100159.75;5030079;28;20419;-86
2023/09/18 04:15:30;;;;;;;13.13;8.98;;;;;;;14.99;100.00;100153.78;5026162;28;20426;-87
2023/09/18 04:18:04;;;;;;;12.43;9.15;;;;;;;14.98;100.00;100154.91;5029188;28;20427;-87
2023/09/18 04:20:33;;;;;;;14.20;9.33;;;;;;;14.96;100.00;100157.16;5021918;28;20411;-88
2023/09/18 04:23:21;;;;;;;13.32;9.05;;;;;;;14.96;100.00;100148.94;5045652;28;20776;-86
2023/09/18 04:25:58;;;;;;;13.60;9.80;;;;;;;14.96;100.00;100140.72;5024014;28;20426;-87
2023/09/18 04:28:32;;;;;;;12.32;9.35;;;;;;;14.94;100.00;100141.06;5045453;28;20953;-86
2023/09/18 04:31:06;;;;;;;13.02;9.35;;;;;;;14.93;100.00;100138.66;5045960;28;20442;-87
2023/09/18 04:33:34;;;;;;;13.52;9.52;;;;;;;14.94;100.00;100132.84;5029993;28;20434;-88
2023/09/18 04:36:07;;;;;;;13.07;9.83;;;;;;;14.95;100.00;100134.44;5026479;28;20419;-87
2023/09/18 04:38:41;;;;;;;16.42;10.30;;;;;;;14.95;100.00;100136.38;5029871;28;20438;-87
2023/09/18 04:41:14;;;;;;;15.15;9.45;;;;;;;14.96;100.00;100129.78;5027869;28;21349;-87
2023/09/18 04:43:44;;;;;;;13.88;9.40;;;;;;;14.98;100.00;100126.72;5045795;28;20427;-87
2023/09/18 04:46:17;;;;;;;13.60;9.88;;;;;;;14.97;100.00;100125.91;5029628;28;20422;-87
2023/09/18 04:48:46;;;;;;;14.43;9.63;;;;;;;14.98;100.00;100119.28;5045807;28;20411;-86
2023/09/18 04:51:15;;;;;;;15.48;9.00;;;;;;;15.00;100.00;100117.03;5046087;28;20427;-87
2023/09/18 04:53:43;;;;;;;17.10;9.40;;;;;;;14.98;100.00;100119.28;5029167;28;21007;-87
2023/09/18 04:56:16;;;;;;;12.88;9.43;;;;;;;14.95;100.00;100111.72;5030497;28;20419;-87
2023/09/18 04:58:46;;;;;;;13.63;9.23;;;;;;;14.94;100.00;100107.34;5026229;28;20438;-87
2023/09/18 05:01:15;;;;;;;13.75;9.43;;;;;;;14.92;100.00;100098.66;5029567;28;20434;-88
2023/09/18 05:03:43;;;;;;;13.65;9.95;;;;;;;14.92;100.00;100090.44;5027458;28;20452;-87
2023/09/18 05:06:17;;;;;;;13.70;9.50;;;;;;;14.93;100.00;100098.34;5029266;28;20423;-87
2023/09/18 05:08:45;;;;;;;14.93;9.82;;;;;;;14.95;100.00;100092.53;5032774;28;20430;-87
2023/09/18 05:11:13;;;;;;;13.60;9.77;;;;;;;14.95;100.00;100082.38;5018956;28;20420;-87
2023/09/18 05:13:41;;;;;;;14.57;9.73;;;;;;;14.95;100.00;100078.84;5028760;28;20438;-87
2023/09/18 05:16:17;;;;;;;13.70;9.90;;;;;;;14.94;100.00;100072.56;5027935;28;20431;-89
2023/09/18 05:18:50;;;;;;;15.65;10.15;;;;;;;14.96;100.00;100064.00;5027905;28;20431;-88
2023/09/18 05:21:24;;;;;;;13.73;10.05;;;;;;;14.96;100.00;100064.81;5044624;28;20431;-87
2023/09/18 05:23:57;;;;;;;12.77;9.57;;;;;;;15.02;100.00;100067.38;5045981;28;20430;-87
2023/09/18 05:26:26;;;;;;;15.83;9.97;;;;;;;15.04;100.00;100049.50;5028992;28;20422;-88
2023/09/18 05:28:54;;;;;;;12.60;9.50;;;;;;;15.09;100.00;100049.34;5021571;28;20429;-87
2023/09/18 05:31:24;;;;;;;13.50;9.47;;;;;;;15.13;100.00;100035.75;5027187;28;20780;-87
2023/09/18 05:33:57;;;;;;;14.25;9.80;;;;;;;15.20;100.00;100030.59;5028565;28;20434;-87
2023/09/18 05:36:25;;;;;;;15.38;9.95;;;;;;;15.21;100.00;100032.19;5027362;28;20450;-88
2023/09/18 05:38:58;;;;;;;14.77;9.90;;;;;;;15.26;100.00;100031.22;5045807;28;20411;-87
2023/09/18 05:41:31;;;;;;;13.43;9.27;;;;;;;15.28;100.00;100026.22;5028393;28;20915;-87
2023/09/18 05:44:07;;;;;;;13.55;10.00;;;;;;;15.31;100.00;100025.56;5029969;28;20423;-87
2023/09/18 05:46:43;;;;;;;14.75;9.77;;;;;;;15.33;100.00;100026.03;5024752;28;20537;-89
2023/09/18 05:49:17;;;;;;;14.57;10.00;;;;;;;15.36;100.00;100027.34;5018591;28;20423;-88
2023/09/18 05:51:47;;;;;;;14.52;9.95;;;;;;;15.39;100.00;100021.19;5028535;28;20435;-87
2023/09/18 05:54:20;;;;;;;12.30;9.48;;;;;;;15.43;100.00;100027.63;5030386;28;20419;-86
2023/09/18 05:56:53;;;;;;;15.10;9.93;;;;;;;15.43;100.00;100022.13;5028277;28;21268;-87
2023/09/18 05:59:26;;;;;;;15.20;9.75;;;;;;;15.46;100.00;100019.53;5028421;28;20419;-87
2023/09/18 06:01:56;;;;;;;15.48;10.10;;;;;;;15.51;100.00;100015.81;5037615;28;20427;-87
2023/09/18 06:04:30;;;;;;;13.67;9.77;;;;;;;15.54;100.00;100006.91;5042285;28;20920;-87
2023/09/18 06:06:58;;;;;;;13.43;9.63;;;;;;;15.56;100.00;100001.91;5029544;28;20415;-87
2023/09/18 06:09:27;;;;;;;13.18;9.57;;;;;;;15.62;100.00;100000.59;5030005;28;20407;-87
2023/09/18 06:12:00;;;;;;;12.63;9.40;;;;;;;15.62;100.00;99986.09;5013128;28;20437;-87
2023/09/18 06:14:29;;;;;;;14.82;9.48;;;;;;;15.70;100.00;99996.22;5027047;28;20434;-87
2023/09/18 06:17:03;;;;;;;14.27;9.60;;;;;;;15.77;100.00;99998.41;5031593;28;21202;-87
2023/09/18 06:19:37;;;;;;;15.25;9.85;;;;;;;15.87;100.00;99983.53;5030099;28;20419;-88
2023/09/18 06:22:05;;;;;;;13.27;9.83;;;;;;;15.93;100.00;99982.22;5027289;28;20426;-88
2023/09/18 06:24:33;;;;;;;14.20;9.60;;;;;;;16.00;100.00;99977.00;5044490;28;20427;-86
2023/09/18 06:27:06;;;;;;;12.20;9.65;;;;;;;16.09;100.00;99975.00;5043926;28;20418;-89
2023/09/18 06:29:41;;;;;;;14.27;9.73;;;;;;;16.15;100.00;99961.88;5028559;28;20428;-87
2023/09/18 06:32:16;;;;;;;14.65;9.52;;;;;;;16.23;100.00;99960.19;5028430;28;20427;-88
2023/09/18 06:34:44;;;;;;;13.13;9.10;;;;;;;16.32;100.00;99952.69;5043208;28;20439;-87
2023/09/18 06:37:12;;;;;;;12.75;9.32;;;;;;;16.38;100.00;99948.59;5028558;28;20419;-88
2023/09/18 06:39:41;;;;;;;15.30;9.03;;;;;;;16.45;100.00;99948.84;5044432;28;20440;-87
2023/09/18 06:42:09;;;;;;;13.13;9.07;;;;;;;16.58;100.00;99948.91;5043870;28;20946;-88
2023/09/18 06:44:42;;;;;;;13.98;8.90;;;;;;;16.67;100.00;99952.38;5032200;28;20427;-88
2023/09/18 06:47:17;;;;;;;13.10;9.05;;;;;;;16.72;100.00;99946.63;5032829;28;20450;-88
2023/09/18 06:49:51;;;;;;;12.40;8.65;;;;;;;16.88;100.00;99941.31;5032796;28;20779;-87
2023/09/18 06:52:25;;;;;;;13.05;8.65;;;;;;;16.99;100.00;99938.94;5027424;28;20803;-88
2023/09/18 06:54:58;;;;;;;12.38;8.23;;;;;;;17.11;100.00;99936.22;5031546;28;20903;-89
2023/09/18 06:57:31;;;;;;;10.98;8.10;;;;;;;17.21;100.00;99932.22;5031353;28;20423;-86
2023/09/18 07:00:00;;;;;;;11.50;8.15;;;;;;;17.41;100.00;99935.97;5031363;28;20414;-87
2023/09/18 07:02:34;;;;;;;14.63;7.88;;;;;;;17.44;100.00;99927.06;5039191;28;20426;-88
2023/09/18 07:05:03;;;;;;;11.95;8.05;;;;;;;17.37;100.00;99926.03;5032904;28;20415;-87
2023/09/18 07:07:32;;;;;;;11.23;8.00;;;;;;;17.37;100.00;99929.56;5031418;28;20418;-87
2023/09/18 07:10:05;;;;;;;10.63;7.95;;;;;;;17.44;100.00;99920.75;5031116;28;20430;-88
2023/09/18 07:12:39;;;;;;;12.40;7.60;;;;;;;17.54;100.00;99920.28;5030855;28;20423;-88
2023/09/18 07:15:08;;;;;;;9.65;7.20;;;;;;;17.66;100.00;99905.69;5047544;28;20445;-87
2023/09/18 07:17:37;;;;;;;10.23;7.40;;;;;;;17.75;100.00;99900.09;5043244;28;20458;-88
2023/09/18 07:20:13;;;;;;;9.93;7.23;;;;;;;17.86;100.00;99895.69;5047967;28;20438;-87
2023/09/18 07:22:46;;;;;;;10.55;7.40;;;;;;;17.97;100.00;99898.78;5031363;28;20423;-87
2023/09/18 07:25:15;;;;;;;10.30;7.25;;;;;;;18.11;100.00;99892.88;5038670;28;20415;-86
2023/09/18 07:27:48;;;;;;;10.37;7.43;;;;;;;18.19;100.00;99884.47;5031829;28;20756;-87
2023/09/18 07:30:17;;;;;;;10.75;7.13;;;;;;;18.35;100.00;99878.19;5031329;28;20430;-87
2023/09/18 07:32:47;;;;;;;10.45;6.95;;;;;;;18.50;100.00;99869.16;5034346;28;20438;-87
2023/09/18 07:35:20;;;;;;;11.98;7.03;;;;;;;18.53;100.00;99859.38;5030803;28;20515;-88
2023/09/18 07:37:53;;;;;;;11.37;6.77;;;;;;;18.63;100.00;99853.38;5030414;28;20422;-87
2023/09/18 07:40:27;;;;;;;11.60;6.78;;;;;;;18.63;100.00;99853.38;5030508;28;20431;-87
2023/09/18 07:42:55;;;;;;;17.33;7.00;;;;;;;18.65;100.00;99853.78;5024765;28;20435;-88
2023/09/18 07:45:28;;;;;;;10.43;7.00;;;;;;;18.67;100.00;99843.22;5025291;28;20434;-88
2023/09/18 07:48:03;;;;;;;10.18;6.70;;;;;;;18.68;100.00;99850.34;5030754;28;20415;-88
2023/09/18 07:50:33;;;;;;;11.17;6.70;;;;;;;18.76;100.00;99856.03;5043769;28;20442;-87
2023/09/18 07:53:01;;;;;;;14.15;6.80;;;;;;;18.74;100.00;99855.56;5030864;28;20425;-88
2023/09/18 07:55:29;;;;;;;9.40;6.87;;;;;;;18.75;100.00;99857.97;5029834;28;21450;-88
2023/09/18 07:57:58;;;;;;;10.02;6.60;;;;;;;18.79;100.00;99841.53;5031386;28;20435;-86
2023/09/18 08:00:27;;;;;;;9.15;6.50;;;;;;;18.89;100.00;99838.25;5042299;28;20439;-87
2023/09/18 08:03:01;;;;;;;9.38;6.40;;;;;;;18.96;100.00;99827.44;5030298;28;20431;-87
2023/09/18 08:05:31;;;;;;;9.48;6.50;;;;;;;18.97;100.00;99840.03;5029785;28;20423;-88
2023/09/18 08:08:06;;;;;;;9.88;6.40;;;;;;;19.01;100.00;99856.66;5031606;28;20422;-87
2023/09/18 08:10:39;;;;;;;10.20;6.28;;;;;;;19.00;100.00;99855.06;5029994;28;20903;-86
2023/09/18 08:13:07;;;;;;;9.82;6.65;;;;;;;19.03;100.00;99857.13;5022496;28;20430;-87
2023/09/18 08:15:35;;;;;;;9.70;6.87;;;;;;;19.04;100.00;99853.19;5029533;28;20430;-87
2023/09/18 08:18:04;;;;;;;10.65;6.45;;;;;;;19.11;100.00;99853.38;5029721;28;20430;-87
2023/09/18 08:20:41;;;;;;;10.77;6.15;;;;;;;19.15;100.00;99845.97;5030050;28;20784;-88
2023/09/18 08:23:14;;;;;;;10.30;6.43;;;;;;;19.27;100.00;99855.31;5043815;28;20434;-87
2023/09/18 08:25:48;;;;;;;8.73;6.60;;;;;;;19.36;100.00;99848.44;5024574;28;20519;-88
2023/09/18 08:28:16;;;;;;;9.48;6.38;;;;;;;19.41;100.00;99841.03;5029774;28;20938;-87
2023/09/18 08:30:49;;;;;;;12.30;6.30;;;;;;;19.34;100.00;99836.94;5029577;28;20434;-89
2023/09/18 08:33:23;;;;;;;14.33;6.90;;;;;;;19.30;100.00;99832.50;5029388;28;20426;-87
2023/09/18 08:35:52;;;;;;;47.97;12.90;;;;;;;19.27;100.00;99820.25;5025094;28;20423;-88
2023/09/18 08:38:25;;;;;;;11.15;6.80;;;;;;;19.36;100.00;99826.38;5045383;28;20439;-86
2023/09/18 08:40:54;;;;;;;10.75;6.90;;;;;;;19.36;100.00;99820.03;5026744;28;20940;-89
2023/09/18 08:43:30;;;;;;;15.10;6.50;;;;;;;19.34;100.00;99827.88;5029875;28;20449;-87
2023/09/18 08:46:04;;;;;;;9.77;6.10;;;;;;;19.36;100.00;99822.78;5046702;28;20930;-88
2023/09/18 08:48:36;;;;;;;9.87;6.40;;;;;;;19.32;100.00;99806.19;5030793;28;20402;-88
2023/09/18 08:51:07;;;;;;;11.50;6.40;;;;;;;19.40;100.00;99820.91;5041010;28;20758;-87
2023/09/18 08:53:36;;;;;;;10.45;6.35;;;;;;;19.42;100.00;99815.06;5029147;28;20443;-86
2023/09/18 08:56:05;;;;;;;9.95;6.10;;;;;;;19.45;100.00;99819.84;5026448;28;20436;-88
2023/09/18 08:58:42;;;;;;;9.57;6.10;;;;;;;19.48;100.00;99825.41;5042198;28;20783;-88
2023/09/18 09:01:10;;;;;;;10.52;6.13;;;;;;;19.48;100.00;99830.16;5028956;28;20990;-87
2023/09/18 09:03:45;;;;;;;10.02;6.30;;;;;;;19.53;100.00;99863.78;5023705;28;20423;-88
2023/09/18 09:06:14;;;;;;;8.52;6.10;;;;;;;19.54;100.00;99862.63;5044826;28;20434;-88
2023/09/18 09:08:48;;;;;;;9.43;6.40;;;;;;;19.52;100.00;99875.19;5028970;28;20791;-88
2023/09/18 09:11:21;;;;;;;12.98;6.57;;;;;;;19.62;100.00;99866.31;5029938;28;20415;-87
2023/09/18 09:14:11;;;;;;;10.27;6.70;;;;;;;19.68;100.00;99855.81;5029023;28;20423;-90
2023/09/18 09:16:40;;;;;;;12.30;6.70;;;;;;;19.68;100.00;99855.81;5045468;28;20439;-91
2023/09/18 09:19:08;;;;;;;9.77;6.40;;;;;;;19.58;100.00;99848.09;5040314;28;20430;-89
2023/09/18 09:21:43;;;;;;;11.20;6.47;;;;;;;19.51;100.00;99848.75;5029657;28;20419;-88
2023/09/18 09:24:13;;;;;;;11.45;6.43;;;;;;;19.34;100.00;99847.97;5028833;28;20414;-87
2023/09/18 09:26:58;;;;;;;9.67;6.30;;;;;;;19.28;100.00;99846.69;5029752;28;20419;-89
2023/09/18 09:29:26;;;;;;;10.27;6.93;;;;;;;19.19;100.00;99835.03;5034444;28;20427;-88
2023/09/18 09:31:56;;;;;;;9.13;6.47;;;;;;;19.24;100.00;99823.72;5035197;28;20438;-87
2023/09/18 09:34:41;;;;;;;9.63;6.50;;;;;;;19.33;100.00;99829.03;5038413;28;20895;-91
2023/09/18 09:37:11;;;;;;;9.52;6.50;;;;;;;19.46;100.00;99825.00;5029315;28;20904;-90
2023/09/18 09:39:50;;;;;;;9.63;6.55;;;;;;;19.61;100.00;99815.06;5042330;28;20435;-89
2023/09/18 09:42:24;;;;;;;10.23;6.38;;;;;;;19.74;100.00;99809.41;5028131;28;21298;-88
2023/09/18 09:45:04;;;;;;;11.85;6.50;;;;;;;19.78;100.00;99819.34;5029286;28;20419;-91
2023/09/18 09:47:36;;;;;;;9.13;6.53;;;;;;;19.75;100.00;99803.53;5029274;28;20887;-89
2023/09/18 09:50:09;;;;;;;8.63;6.32;;;;;;;20.00;100.00;99806.00;5029511;28;20415;-88
2023/09/18 09:52:48;;;;;;;9.32;6.45;;;;;;;20.01;100.00;99811.16;5029095;28;20915;-91
2023/09/18 09:55:29;;;;;;;9.85;6.28;;;;;;;20.04;100.00;99817.91;5029010;28;20430;-88
2023/09/18 09:58:00;;;;;;;9.02;6.28;;;;;;;19.99;100.00;99812.69;5027713;28;20678;-89
2023/09/18 10:00:36;;;;;;;10.50;6.40;;;;;;;20.13;100.00;99812.94;5027377;28;20423;-89
2023/09/18 10:03:09;;;;;;;10.98;6.30;;;;;;;20.08;100.00;99826.25;5029204;28;20975;-90
2023/09/18 10:05:44;;;;;;;11.63;6.30;;;;;;;20.04;100.00;99817.91;5037567;28;20450;-90
2023/09/18 10:08:18;;;;;;;10.43;6.40;;;;;;;20.20;100.00;99815.88;5043666;28;20435;-89
2023/09/18 10:10:53;;;;;;;10.02;6.53;;;;;;;20.30;100.00;99802.59;5029022;28;20752;-90
2023/09/18 10:13:32;;;;;;;10.07;6.20;;;;;;;20.26;100.00;99794.25;5028203;28;20423;-89
2023/09/18 10:16:02;;;;;;;9.75;6.25;;;;;;;20.29;100.00;99789.97;5044712;28;20419;-89
2023/09/18 10:18:45;;;;;;;12.57;6.43;;;;;;;20.32;100.00;99800.28;5030314;28;20403;-89
2023/09/18 10:21:23;;;;;;;9.60;6.03;;;;;;;20.45;100.00;99785.09;5032579;28;20791;-89
2023/09/18 10:24:04;;;;;;;9.25;6.15;;;;;;;20.55;100.00;99784.47;5031427;28;20442;-88
2023/09/18 10:26:38;;;;;;;9.68;5.95;;;;;;;20.54;100.00;99788.41;5026944;28;20442;-90
2023/09/18 10:29:08;;;;;;;10.38;6.40;;;;;;;20.58;100.00;99788.47;5029144;28;20422;-90
2023/09/18 10:31:45;;;;;;;8.77;6.03;;;;;;;20.65;100.00;99793.31;5028764;28;20415;-90
2023/09/18 10:34:16;;;;;;;9.43;6.20;;;;;;;20.71;100.00;99797.41;5032790;28;20899;-89
2023/09/18 10:36:48;;;;;;;9.23;5.88;;;;;;;20.63;100.00;99788.16;5032053;28;20450;-90
2023/09/18 10:39:19;;;;;;;10.63;6.18;;;;;;;20.56;100.00;99785.28;5028629;28;20426;-89
2023/09/18 10:41:54;;;;;;;10.03;6.60;;;;;;;20.55;100.00;99783.69;5037755;28;20438;-89
2023/09/18 10:44:23;;;;;;;9.35;6.07;;;;;;;20.47;100.00;99782.75;5031877;28;20427;-88
2023/09/18 10:46:57;;;;;;;11.85;6.30;;;;;;;20.52;100.00;99796.28;5032399;28;20442;-89
2023/09/18 10:49:25;;;;;;;9.85;5.75;;;;;;;20.61;100.00;99796.03;5031309;28;20779;-89
2023/09/18 10:52:00;;;;;;;10.27;5.70;;;;;;;20.64;100.00;99792.50;5021743;28;20432;-92
2023/09/18 10:54:31;;;;;;;10.33;6.53;;;;;;;20.58;100.00;99784.91;5048405;28;20430;-90
2023/09/18 10:57:01;;;;;;;9.77;5.60;;;;;;;20.63;100.00;99790.94;5031716;28;20426;-91
2023/09/18 10:59:35;;;;;;;9.25;5.90;;;;;;;20.70;100.00;99798.56;5040809;28;20438;-90
2023/09/18 11:02:04;;;;;;;13.27;6.35;;;;;;;20.77;100.00;99804.22;5033959;28;20978;-89
2023/09/18 11:04:33;;;;;;;10.20;5.88;;;;;;;20.75;100.00;99803.78;5033723;28;20441;-89
2023/09/18 11:07:09;;;;;;;10.23;5.93;;;;;;;20.88;100.00;99791.34;5030954;28;20435;-89
2023/09/18 11:09:45;;;;;;;10.63;6.10;;;;;;;21.04;100.00;99793.16;5030240;28;20446;-88
2023/09/18 11:12:19;;;;;;;9.60;5.78;;;;;;;21.14;100.00;99783.41;5031212;28;20450;-88
2023/09/18 11:14:52;;;;;;;11.90;6.03;;;;;;;21.23;100.00;99792.25;5039146;28;20415;-90
2023/09/18 11:17:31;;;;;;;9.75;5.47;;;;;;;21.30;100.00;99805.38;5031562;28;20922;-89
2023/09/18 11:20:08;;;;;;;8.50;5.25;;;;;;;21.35;100.00;99799.50;5029236;28;20438;-89
2023/09/18 11:22:56;;;;;;;12.40;5.43;;;;;;;21.28;100.00;99794.69;5047428;28;21064;-89
2023/09/18 11:25:37;;;;;;;11.20;5.03;;;;;;;21.30;100.00;99792.34;5020204;28;20419;-88
2023/09/18 11:28:08;;;;;;;11.88;5.18;;;;;;;21.20;100.00;99804.06;5027438;28;20426;-87
2023/09/18 11:30:37;;;;;;;8.43;4.53;;;;;;;21.21;100.00;99802.88;5031708;28;20415;-89
2023/09/18 11:33:08;;;;;;;11.38;5.10;;;;;;;21.15;100.00;99796.09;5031990;28;20418;-89
2023/09/18 11:35:37;;;;;;;10.57;4.90;;;;;;;21.14;100.00;99800.81;5033320;28;20399;-90
2023/09/18 11:38:07;;;;;;;11.38;4.93;;;;;;;21.16;100.00;99806.00;5028437;28;20903;-89